Date,TemperatureHighF,TemperatureAvgF,TemperatureLowF,DewpointHighF,DewpointAvgF,DewpointLowF,HumidityHigh,HumidityAvg,HumidityLow,PressureMaxIn,PressureMinIn,WindSpeedMaxMPH,WindSpeedAvgMPH,GustSpeedMaxMPH,PrecipitationSumIn
2013-1-1,63.9,53.0,44.8,52.6,47.3,40.3,93,81,66,30.15,29.90,6,0,6,0.04
2013-1-2,61.1,54.5,51.7,53.7,50.8,46.9,95,88,68,30.11,29.88,8,0,8,0.08
2013-1-3,52.0,47.2,42.5,47.2,42.3,38.6,89,83,70,30.25,30.06,6,0,6,0.01
2013-1-4,55.7,41.7,31.2,39.6,34.5,28.8,93,78,48,30.35,30.23,10,0,10,0.00
2013-1-5,54.5,40.5,25.5,38.9,29.0,22.6,90,67,36,30.40,30.25,5,0,5,0.00
2013-1-6,52.8,47.0,41.3,45.3,40.0,33.9,92,77,60,30.25,30.08,12,1,12,0.04
2013-1-7,55.8,42.0,30.6,40.7,32.4,28.3,93,72,42,30.39,30.20,7,1,12,0.01
2013-1-8,55.7,43.1,30.5,44.7,37.4,27.6,90,81,65,30.40,30.30,5,0,5,0.00
2013-1-9,69.7,57.1,40.5,56.1,49.6,38.4,92,77,60,30.42,30.32,6,0,6,0.00
2013-1-10,74.0,60.0,45.7,59.2,52.9,43.8,94,79,51,30.41,30.26,13,2,13,0.05
2013-1-11,72.1,63.1,60.7,65.2,60.8,58.3,95,92,77,30.26,30.13,12,2,12,0.00
2013-1-12,74.3,64.4,60.4,63.0,59.3,56.5,90,84,67,30.13,30.05,3,0,12,0.00
2013-1-13,77.4,68.7,61.5,65.3,61.4,58.2,90,78,61,30.12,30.02,5,0,12,0.00
2013-1-14,79.0,69.5,59.0,64.7,60.6,55.9,90,74,57,30.09,30.03,5,0,13,0.00
2013-1-15,76.3,69.5,59.4,61.8,60.0,56.5,90,72,58,30.10,29.95,13,1,13,0.00
2013-1-16,75.0,67.3,61.7,64.7,60.8,57.3,94,80,67,29.98,29.89,18,2,18,0.10
2013-1-17,69.0,56.3,42.2,65.9,53.0,36.9,95,89,74,30.17,29.72,22,4,22,0.37
2013-1-18,55.6,42.5,31.8,37.9,32.2,26.5,92,70,35,30.49,30.17,8,1,8,0.01
2013-1-19,60.4,42.1,26.5,39.4,32.1,24.1,91,71,38,30.48,30.20,5,0,5,0.00
2013-1-20,66.2,48.5,35.1,41.9,36.6,33.0,93,68,36,30.20,30.04,15,1,15,0.01
2013-1-21,62.9,48.8,31.7,40.0,32.2,23.4,91,58,30,30.09,29.98,15,3,15,0.00
2013-1-22,50.7,41.9,34.4,23.8,19.8,16.8,53,41,29,30.28,30.07,16,3,16,0.00
2013-1-23,55.1,40.6,27.5,35.5,24.8,17.0,72,54,37,30.36,30.14,16,1,16,0.00
2013-1-24,63.3,51.6,36.0,42.7,31.5,13.0,80,50,20,30.41,30.08,20,4,20,0.00
2013-1-25,39.5,34.2,28.8,27.1,17.3,9.9,61,50,37,30.45,30.13,10,1,10,0.00
2013-1-26,60.2,45.0,35.7,38.2,33.3,26.7,85,65,44,30.28,30.09,6,0,6,0.00
2013-1-27,55.5,44.7,32.9,33.1,29.9,26.4,81,58,39,30.50,30.28,12,2,12,0.00
2013-1-28,60.7,47.9,41.5,47.8,38.4,28.8,91,70,52,30.43,30.27,6,0,6,0.00
2013-1-29,76.5,58.5,40.6,62.2,51.6,38.1,92,79,60,30.27,30.01,16,1,16,0.00
2013-1-30,76.9,67.1,51.6,64.9,60.4,45.6,92,80,62,30.02,29.49,30,6,30,0.92
2013-1-31,53.0,44.7,36.8,46.5,28.9,23.0,84,55,32,30.16,29.70,24,7,24,0.10